createdAt,value
2022-12-03T00:00:45.322Z,1008.46
2022-12-03T00:01:45.221Z,1008.46
2022-12-03T00:02:45.500Z,1008.44
2022-12-03T00:03:45.371Z,1008.41
2022-12-03T00:04:45.164Z,1008.39
2022-12-03T00:05:49.169Z,1008.37
2022-12-03T00:06:45.177Z,1008.38
2022-12-03T00:07:45.184Z,1008.37
2022-12-03T00:08:45.128Z,1008.37
2022-12-03T00:09:45.149Z,1008.36
2022-12-03T00:10:45.113Z,1008.35
2022-12-03T00:11:45.145Z,1008.36
2022-12-03T00:12:45.105Z,1008.36
2022-12-03T00:13:45.090Z,1008.33
2022-12-03T00:14:45.199Z,1008.33
2022-12-03T00:15:45.123Z,1008.34
2022-12-03T00:16:45.039Z,1008.32
2022-12-03T00:17:45.097Z,1008.32
2022-12-03T00:18:45.047Z,1008.31
2022-12-03T00:19:45.042Z,1008.31
2022-12-03T00:20:45.009Z,1008.31
2022-12-03T00:21:45.015Z,1008.31
2022-12-03T00:22:44.996Z,1008.31
2022-12-03T00:23:45.051Z,1008.33
2022-12-03T00:24:44.977Z,1008.32
2022-12-03T00:25:44.992Z,1008.31
2022-12-03T00:26:44.952Z,1008.31
2022-12-03T00:27:44.995Z,1008.30
2022-12-03T00:28:44.928Z,1008.31
2022-12-03T00:29:44.926Z,1008.31
2022-12-03T00:30:45.018Z,1008.29
2022-12-03T00:31:44.987Z,1008.29
2022-12-03T00:32:44.872Z,1008.27
2022-12-03T00:33:44.870Z,1008.27
2022-12-03T00:34:44.855Z,1008.26
2022-12-03T00:35:44.857Z,1008.25
2022-12-03T00:36:44.876Z,1008.27
2022-12-03T00:37:44.849Z,1008.25
2022-12-03T00:38:44.886Z,1008.25
2022-12-03T00:39:44.825Z,1008.24
2022-12-03T00:40:44.798Z,1008.25
2022-12-03T00:41:44.829Z,1008.24
2022-12-03T00:42:44.812Z,1008.24
2022-12-03T00:43:44.769Z,1008.23
2022-12-03T00:44:44.780Z,1008.22
2022-12-03T00:45:44.760Z,1008.20
2022-12-03T00:46:44.907Z,1008.21
2022-12-03T00:47:44.731Z,1008.22
2022-12-03T00:48:44.769Z,1008.22
2022-12-03T00:49:44.823Z,1008.21
2022-12-03T00:50:44.682Z,1008.20
2022-12-03T00:51:44.736Z,1008.22
2022-12-03T00:52:44.691Z,1008.19
2022-12-03T00:53:44.671Z,1008.20
2022-12-03T00:54:44.678Z,1008.19
2022-12-03T00:55:44.648Z,1008.17
2022-12-03T00:56:44.678Z,1008.19
2022-12-03T00:57:45.074Z,1008.17
2022-12-03T00:58:44.609Z,1008.19
2022-12-03T00:59:44.610Z,1008.14
2022-12-03T01:00:44.669Z,1008.21
2022-12-03T01:01:44.646Z,1008.23
2022-12-03T01:02:44.567Z,1008.19
2022-12-03T01:03:44.638Z,1008.21
2022-12-03T01:04:44.581Z,1008.21
2022-12-03T01:05:44.557Z,1008.19
2022-12-03T01:06:44.531Z,1008.20
2022-12-03T01:07:44.574Z,1008.17
2022-12-03T01:08:44.495Z,1008.18
2022-12-03T01:09:44.549Z,1008.17
2022-12-03T01:10:44.486Z,1008.19
2022-12-03T01:11:44.482Z,1008.18
2022-12-03T01:12:44.500Z,1008.20
2022-12-03T01:13:44.469Z,1008.19
2022-12-03T01:14:44.445Z,1008.20
2022-12-03T01:15:44.508Z,1008.21
2022-12-03T01:16:44.420Z,1008.19
2022-12-03T01:17:44.440Z,1008.19
2022-12-03T01:18:44.462Z,1008.21
2022-12-03T01:19:48.286Z,1008.22
2022-12-03T01:20:44.377Z,1008.24
2022-12-03T01:21:44.378Z,1008.26
2022-12-03T01:22:44.359Z,1008.25
2022-12-03T01:23:44.375Z,1008.28
2022-12-03T01:24:44.356Z,1008.26
2022-12-03T01:25:44.339Z,1008.29
2022-12-03T01:26:44.308Z,1008.27
2022-12-03T01:27:44.317Z,1008.29
2022-12-03T01:28:44.285Z,1008.28
2022-12-03T01:29:44.298Z,1008.28
2022-12-03T01:30:44.287Z,1008.30
2022-12-03T01:31:44.313Z,1008.29
2022-12-03T01:32:44.249Z,1008.31
2022-12-03T01:33:44.254Z,1008.30
2022-12-03T01:34:44.286Z,1008.31
2022-12-03T01:35:44.233Z,1008.33
2022-12-03T01:36:44.203Z,1008.31
2022-12-03T01:37:44.214Z,1008.33
2022-12-03T01:38:44.242Z,1008.31
2022-12-03T01:39:44.192Z,1008.31
2022-12-03T01:40:44.185Z,1008.31
2022-12-03T01:41:44.164Z,1008.30
2022-12-03T01:42:44.200Z,1008.30
2022-12-03T01:43:44.147Z,1008.30
2022-12-03T01:44:44.113Z,1008.27
2022-12-03T01:45:44.130Z,1008.32
2022-12-03T01:46:44.152Z,1008.32
2022-12-03T01:47:44.137Z,1008.30
2022-12-03T01:48:44.123Z,1008.30
2022-12-03T01:49:44.086Z,1008.26
2022-12-03T01:50:44.122Z,1008.28
2022-12-03T01:51:44.085Z,1008.28
2022-12-03T01:52:44.043Z,1008.28
2022-12-03T01:53:44.051Z,1008.28
2022-12-03T01:54:44.028Z,1008.24
2022-12-03T01:55:48.440Z,1008.29
2022-12-03T01:56:43.998Z,1008.28
2022-12-03T01:57:44.016Z,1008.28
2022-12-03T01:58:43.962Z,1008.29
2022-12-03T01:59:43.992Z,1008.29
2022-12-03T02:00:43.969Z,1008.27
2022-12-03T02:01:44.011Z,1008.28
2022-12-03T02:02:43.931Z,1008.28
2022-12-03T02:03:44.071Z,1008.30
2022-12-03T02:04:43.913Z,1008.30
2022-12-03T02:05:43.945Z,1008.29
2022-12-03T02:06:43.916Z,1008.28
2022-12-03T02:07:43.935Z,1008.27
2022-12-03T02:08:43.858Z,1008.27
2022-12-03T02:09:43.891Z,1008.29
2022-12-03T06:00:47.021Z,1007.95
2022-12-03T06:01:47.900Z,1007.95
2022-12-03T06:02:48.185Z,1007.98
2022-12-03T06:03:48.220Z,1007.97
2022-12-03T06:04:47.856Z,1007.97
2022-12-03T06:05:47.848Z,1007.98
2022-12-03T06:06:47.836Z,1007.99
2022-12-03T06:07:47.931Z,1007.97
2022-12-03T06:08:47.828Z,1007.98
2022-12-03T06:09:47.830Z,1007.96
2022-12-03T06:10:47.812Z,1007.95
2022-12-03T06:11:47.804Z,1007.94
2022-12-03T06:12:47.776Z,1007.93
2022-12-03T06:13:47.794Z,1007.91
2022-12-03T06:14:47.758Z,1007.90
2022-12-03T06:15:47.824Z,1007.91
2022-12-03T06:16:47.736Z,1007.88
2022-12-03T06:17:47.745Z,1007.88
2022-12-03T06:18:47.711Z,1007.89
2022-12-03T06:19:47.736Z,1007.87
2022-12-03T06:20:47.711Z,1007.85
2022-12-03T06:21:47.748Z,1007.86
2022-12-03T06:22:47.694Z,1007.86
2022-12-03T06:23:47.680Z,1007.90
2022-12-03T06:24:47.649Z,1007.83
2022-12-03T06:25:47.677Z,1007.84
2022-12-03T06:26:47.637Z,1007.84
2022-12-03T06:27:47.664Z,1007.82
2022-12-03T06:28:47.624Z,1007.79
2022-12-03T06:29:47.606Z,1007.80
2022-12-03T06:30:47.658Z,1007.76
2022-12-03T06:31:47.593Z,1007.76
2022-12-03T06:32:47.588Z,1007.77
2022-12-03T06:33:47.567Z,1007.75
2022-12-03T06:34:47.554Z,1007.74
2022-12-03T06:35:47.564Z,1007.73
2022-12-03T06:36:47.536Z,1007.71
2022-12-03T06:37:47.529Z,1007.74
2022-12-03T06:38:47.532Z,1007.74
2022-12-03T06:39:47.507Z,1007.73
2022-12-03T06:40:47.441Z,1007.74
2022-12-03T06:41:47.447Z,1007.73
2022-12-03T06:42:47.411Z,1007.72
2022-12-03T06:43:47.417Z,1007.71
2022-12-03T06:44:47.419Z,1007.73
2022-12-03T06:45:48.026Z,1007.72
2022-12-03T06:46:47.453Z,1007.72
2022-12-03T06:47:47.374Z,1007.72
2022-12-03T06:48:47.353Z,1007.74
2022-12-03T06:49:47.353Z,1007.74
2022-12-03T06:50:47.329Z,1007.73
2022-12-03T06:51:47.344Z,1007.71
2022-12-03T06:52:47.341Z,1007.69
2022-12-03T06:53:47.317Z,1007.69
2022-12-03T06:54:47.282Z,1007.67
2022-12-03T06:55:47.295Z,1007.67
2022-12-03T06:56:47.279Z,1007.66
2022-12-03T06:57:47.347Z,1007.64
2022-12-03T06:58:47.238Z,1007.65
2022-12-03T06:59:47.247Z,1007.65
2022-12-03T07:00:47.227Z,1007.64
2022-12-03T07:01:47.253Z,1007.63
2022-12-03T07:02:47.284Z,1007.63
2022-12-03T07:03:47.221Z,1007.63
2022-12-03T07:04:47.182Z,1007.66
2022-12-03T07:05:47.180Z,1007.69
2022-12-03T07:06:47.174Z,1007.68
2022-12-03T07:07:47.203Z,1007.70
2022-12-03T07:08:47.140Z,1007.70
2022-12-03T07:09:47.179Z,1007.68
2022-12-03T07:10:47.160Z,1007.67
2022-12-03T07:11:47.130Z,1007.71
2022-12-03T07:12:47.111Z,1007.69
2022-12-03T07:13:47.109Z,1007.71
2022-12-03T07:14:47.071Z,1007.73
2022-12-03T07:15:47.142Z,1007.73
2022-12-03T07:16:47.050Z,1007.75
2022-12-03T07:17:47.060Z,1007.75
2022-12-03T07:18:47.032Z,1007.78
2022-12-03T07:19:47.033Z,1007.76
2022-12-03T07:20:47.014Z,1007.77
2022-12-03T07:21:47.037Z,1007.77
2022-12-03T07:22:46.992Z,1007.77
2022-12-03T07:23:46.997Z,1007.78
2022-12-03T07:24:46.974Z,1007.78
2022-12-03T07:25:46.979Z,1007.81
2022-12-03T07:26:46.964Z,1007.83
2022-12-03T07:27:46.979Z,1007.82
2022-12-03T07:28:46.925Z,1007.83
2022-12-03T07:29:46.932Z,1007.83
2022-12-03T07:30:46.913Z,1007.85
2022-12-03T07:31:47.043Z,1007.85
2022-12-03T07:32:46.888Z,1007.83
2022-12-03T07:33:46.910Z,1007.85
2022-12-03T07:34:46.866Z,1007.85
2022-12-03T07:35:46.887Z,1007.87
2022-12-03T07:36:46.862Z,1007.86
2022-12-03T07:37:46.874Z,1007.86
2022-12-03T07:38:46.835Z,1007.87
2022-12-03T07:39:46.833Z,1007.87
2022-12-03T07:40:46.820Z,1007.86
2022-12-03T07:41:46.851Z,1007.86
2022-12-03T07:42:46.795Z,1007.85
2022-12-03T07:43:46.823Z,1007.85
2022-12-03T07:44:46.769Z,1007.85
2022-12-03T07:45:46.795Z,1007.86
2022-12-03T07:46:46.791Z,1007.84
2022-12-03T07:47:46.749Z,1007.82
2022-12-03T07:48:46.743Z,1007.83
2022-12-03T07:49:46.731Z,1007.83
2022-12-03T07:50:46.710Z,1007.88
2022-12-03T07:51:46.713Z,1007.86
2022-12-03T07:52:46.681Z,1007.87
2022-12-03T07:53:46.703Z,1007.86
2022-12-03T07:54:46.679Z,1007.85
2022-12-03T07:55:46.675Z,1007.83
2022-12-03T07:56:46.654Z,1007.83
2022-12-03T07:57:46.655Z,1007.81
2022-12-03T07:58:46.620Z,1007.81
2022-12-03T07:59:46.641Z,1007.81
2022-12-03T08:00:46.731Z,1007.81
2022-12-03T08:01:46.673Z,1007.79
2022-12-03T08:02:46.626Z,1007.76
2022-12-03T08:03:46.597Z,1007.80
2022-12-03T08:04:46.555Z,1007.80
2022-12-03T08:05:46.590Z,1007.79
2022-12-03T08:06:46.562Z,1007.79
2022-12-03T08:07:46.573Z,1007.79
2022-12-03T08:08:46.526Z,1007.81
2022-12-03T08:09:46.515Z,1007.80
2022-12-03T08:10:46.499Z,1007.80
2022-12-03T08:11:46.509Z,1007.81
2022-12-03T08:12:46.501Z,1007.82
2022-12-03T08:13:46.483Z,1007.81
2022-12-03T08:14:46.554Z,1007.80
2022-12-03T08:15:46.491Z,1007.80
2022-12-03T08:18:02.702Z,1007.84
2022-12-03T08:20:00.387Z,1007.85
2022-12-03T08:21:01.391Z,1007.86
2022-12-03T08:22:01.740Z,1007.85
2022-12-03T08:23:01.373Z,1007.82
2022-12-03T08:24:01.352Z,1007.82
2022-12-03T08:25:01.362Z,1007.84
2022-12-03T08:26:01.326Z,1007.83
2022-12-03T08:27:01.337Z,1007.83
2022-12-03T08:28:01.300Z,1007.84
2022-12-03T08:29:01.317Z,1007.84
2022-12-03T08:30:01.313Z,1007.83
2022-12-03T08:31:01.305Z,1007.84
2022-12-03T08:32:01.328Z,1007.85
2022-12-03T08:33:01.271Z,1007.85
2022-12-03T08:34:01.243Z,1007.85
2022-12-03T08:35:01.269Z,1007.85
2022-12-03T08:36:01.225Z,1007.87
2022-12-03T08:37:01.243Z,1007.87
2022-12-03T08:38:01.196Z,1007.88
2022-12-03T08:39:01.214Z,1007.90
2022-12-03T08:40:01.185Z,1007.89
2022-12-03T08:41:01.188Z,1007.90
2022-12-03T08:42:01.182Z,1007.90
2022-12-03T08:43:01.197Z,1007.89
2022-12-03T08:44:01.151Z,1007.88
2022-12-03T08:45:01.149Z,1007.90
2022-12-03T08:46:01.176Z,1007.90
2022-12-03T08:47:01.128Z,1007.90
2022-12-03T08:48:01.127Z,1007.89
2022-12-03T08:49:01.129Z,1007.86
2022-12-03T08:50:01.082Z,1007.86
2022-12-03T08:51:01.074Z,1007.85
2022-12-03T08:52:01.053Z,1007.86
2022-12-03T08:53:01.053Z,1007.84
2022-12-03T08:54:02.150Z,1007.83
2022-12-03T08:55:01.058Z,1007.82
2022-12-03T08:56:01.018Z,1007.78
2022-12-03T08:57:01.021Z,1007.78
2022-12-03T08:58:01.001Z,1007.80
2022-12-03T08:59:01.002Z,1007.76
2022-12-03T09:00:00.993Z,1007.76
2022-12-03T09:01:01.016Z,1007.75
2022-12-03T09:02:00.958Z,1007.76
2022-12-03T09:03:00.967Z,1007.77
2022-12-03T09:04:00.980Z,1007.73
2022-12-03T09:05:00.924Z,1007.75
2022-12-03T09:06:00.943Z,1007.73
2022-12-03T09:07:00.920Z,1007.72
2022-12-03T09:08:00.994Z,1007.72
2022-12-03T09:09:05.263Z,1007.71
2022-12-03T09:10:00.877Z,1007.72
2022-12-03T09:11:00.873Z,1007.70
2022-12-03T09:12:00.865Z,1007.72
2022-12-03T09:13:00.856Z,1007.72
2022-12-03T09:14:00.825Z,1007.74
2022-12-03T09:15:00.825Z,1007.73
2022-12-03T09:16:00.799Z,1007.76
2022-12-03T09:17:00.907Z,1007.76
2022-12-03T09:18:00.806Z,1007.75
2022-12-03T09:19:00.810Z,1007.76
2022-12-03T09:20:00.762Z,1007.75
2022-12-03T09:21:00.769Z,1007.77
2022-12-03T09:22:00.739Z,1007.75
2022-12-03T09:23:00.764Z,1007.75
2022-12-03T09:24:00.723Z,1007.75
2022-12-03T09:25:00.727Z,1007.76
2022-12-03T09:26:00.719Z,1007.76
2022-12-03T09:27:00.707Z,1007.76
2022-12-03T09:28:00.681Z,1007.77
2022-12-03T09:29:00.673Z,1007.74
2022-12-03T09:30:00.664Z,1007.76
2022-12-03T09:31:00.666Z,1007.76
2022-12-03T09:32:00.703Z,1007.78
2022-12-03T09:33:00.625Z,1007.79
2022-12-03T09:34:00.627Z,1007.78
2022-12-03T09:35:00.632Z,1007.80
2022-12-03T09:36:00.599Z,1007.77
2022-12-03T09:37:00.600Z,1007.76
2022-12-03T09:38:00.589Z,1007.76
2022-12-03T09:39:00.592Z,1007.75
2022-12-03T09:40:00.564Z,1007.73
2022-12-03T09:41:00.572Z,1007.71
2022-12-03T09:42:00.548Z,1007.70
2022-12-03T09:43:00.560Z,1007.67
2022-12-03T09:44:05.114Z,1007.65
2022-12-03T09:45:00.515Z,1007.65
2022-12-03T09:46:00.547Z,1007.61
2022-12-03T09:47:00.492Z,1007.61
2022-12-03T09:48:00.469Z,1007.59
2022-12-03T09:49:00.496Z,1007.58
2022-12-03T09:50:00.464Z,1007.60
2022-12-03T09:51:00.458Z,1007.58
2022-12-03T09:52:00.423Z,1007.59
2022-12-03T09:53:00.427Z,1007.58
2022-12-03T09:54:00.405Z,1007.56
2022-12-03T09:55:00.424Z,1007.55
2022-12-03T09:56:00.393Z,1007.55
2022-12-03T09:57:00.392Z,1007.53
2022-12-03T09:58:00.364Z,1007.51
2022-12-03T09:59:00.385Z,1007.50
2022-12-03T10:00:00.346Z,1007.52
2022-12-03T10:01:00.430Z,1007.52
2022-12-03T10:02:00.457Z,1007.55
2022-12-03T10:03:00.329Z,1007.53
2022-12-03T10:04:00.334Z,1007.54
2022-12-03T10:05:00.467Z,1007.51
2022-12-03T10:06:00.293Z,1007.48
2022-12-03T10:07:00.327Z,1007.50
2022-12-03T10:08:00.313Z,1007.48
2022-12-03T10:09:00.300Z,1007.48
2022-12-03T10:10:00.237Z,1007.44
2022-12-03T10:11:00.239Z,1007.42
2022-12-03T10:12:00.225Z,1007.42
2022-12-03T10:13:00.254Z,1007.41
2022-12-03T10:14:00.194Z,1007.39
2022-12-03T10:15:00.211Z,1007.38
2022-12-03T10:16:00.191Z,1007.35
2022-12-03T10:17:00.326Z,1007.34
2022-12-03T10:18:00.159Z,1007.33
2022-12-03T10:19:00.165Z,1007.29
2022-12-03T10:20:00.154Z,1007.28
2022-12-03T10:21:00.145Z,1007.25
2022-12-03T10:22:00.111Z,1007.22
2022-12-03T10:23:00.179Z,1007.21
2022-12-03T10:24:00.118Z,1007.21
2022-12-03T10:25:00.111Z,1007.20
2022-12-03T10:26:00.075Z,1007.20
2022-12-03T10:27:00.084Z,1007.19
2022-12-03T10:28:00.042Z,1007.17
2022-12-03T10:29:00.082Z,1007.16
2022-12-03T10:30:00.037Z,1007.16
2022-12-03T10:31:00.139Z,1007.14
2022-12-03T10:32:00.112Z,1007.12
2022-12-03T10:33:00.015Z,1007.11
2022-12-03T10:34:00.000Z,1007.09
2022-12-03T10:35:00.006Z,1007.07
2022-12-03T10:35:59.964Z,1007.08
2022-12-03T10:36:59.992Z,1007.09
2022-12-03T10:37:59.946Z,1007.09
2022-12-03T10:38:59.947Z,1007.11
2022-12-03T10:39:59.964Z,1007.12
2022-12-03T10:40:59.935Z,1007.10
2022-12-03T10:41:59.902Z,1007.13
2022-12-03T10:42:59.902Z,1007.14
2022-12-03T10:43:59.879Z,1007.13
2022-12-03T10:44:59.882Z,1007.14
2022-12-03T10:46:03.825Z,1007.18
2022-12-03T10:46:59.980Z,1007.15
2022-12-03T10:47:59.839Z,1007.13
2022-12-03T10:48:59.878Z,1007.13
2022-12-03T10:49:59.816Z,1007.13
2022-12-03T10:50:59.859Z,1007.09
2022-12-03T10:51:59.893Z,1007.06
2022-12-03T10:52:59.802Z,1007.07
2022-12-03T10:53:59.778Z,1007.08
2022-12-03T10:54:59.770Z,1007.08
2022-12-03T10:55:59.826Z,1007.08
2022-12-03T10:56:59.783Z,1007.07
2022-12-03T10:57:59.739Z,1007.06
2022-12-03T10:58:59.747Z,1007.06
2022-12-03T10:59:59.712Z,1007.03
2022-12-03T11:00:59.838Z,1007.03
2022-12-03T11:01:59.829Z,1007.02
2022-12-03T11:02:59.720Z,1007.02
2022-12-03T11:03:59.758Z,1007.00
2022-12-03T11:04:59.681Z,1006.98
2022-12-03T11:05:59.653Z,1006.99
2022-12-03T11:06:59.693Z,1006.98
2022-12-03T11:07:59.712Z,1006.96
2022-12-03T11:09:05.338Z,1006.96
2022-12-03T11:09:59.641Z,1006.95
2022-12-03T11:10:59.617Z,1006.93
2022-12-03T11:11:59.589Z,1006.92
2022-12-03T11:12:59.595Z,1006.93
2022-12-03T11:13:59.572Z,1006.90
2022-12-03T11:14:59.570Z,1006.88
2022-12-03T11:15:59.690Z,1006.88
2022-12-03T11:16:59.601Z,1006.85
2022-12-03T11:17:59.523Z,1006.86
2022-12-03T11:18:59.530Z,1006.84
2022-12-03T11:19:59.516Z,1006.84
2022-12-03T11:20:59.509Z,1006.80
2022-12-03T11:21:59.511Z,1006.77
2022-12-03T11:23:00.229Z,1006.79
2022-12-03T11:23:59.507Z,1006.78
2022-12-03T11:24:59.446Z,1006.76
2022-12-03T11:25:59.454Z,1006.77
2022-12-03T11:26:59.435Z,1006.75
2022-12-03T11:27:59.462Z,1006.75
2022-12-03T11:28:59.409Z,1006.73
2022-12-03T11:29:59.434Z,1006.73
2022-12-03T11:30:59.478Z,1006.73
2022-12-03T11:31:59.405Z,1006.71
2022-12-03T11:32:59.362Z,1006.71
2022-12-03T11:33:59.398Z,1006.70
2022-12-03T11:34:59.348Z,1006.69
2022-12-03T11:35:59.351Z,1006.69
2022-12-03T11:37:01.934Z,1006.67
2022-12-03T11:37:59.329Z,1006.68
2022-12-03T11:38:59.345Z,1006.66
2022-12-03T11:39:59.303Z,1006.65
2022-12-03T11:40:59.293Z,1006.62
2022-12-03T11:41:59.302Z,1006.66
2022-12-03T11:42:59.264Z,1006.63
2022-12-03T11:43:59.268Z,1006.61
2022-12-03T11:44:59.269Z,1006.61
2022-12-03T11:46:04.104Z,1006.62
2022-12-03T11:46:59.341Z,1006.65
2022-12-03T11:47:59.258Z,1006.63
2022-12-03T11:48:59.198Z,1006.64
2022-12-03T11:49:59.241Z,1006.63
2022-12-03T11:50:59.184Z,1006.62
2022-12-03T11:51:59.185Z,1006.63
2022-12-03T11:52:59.170Z,1006.61
2022-12-03T11:53:59.212Z,1006.63
2022-12-03T11:54:59.150Z,1006.58
2022-12-03T11:56:04.204Z,1006.58
2022-12-03T11:56:59.119Z,1006.58
2022-12-03T11:57:59.137Z,1006.56
2022-12-03T11:58:59.108Z,1006.56
2022-12-03T11:59:59.120Z,1006.53
2022-12-03T12:00:59.121Z,1006.50
2022-12-03T12:01:59.099Z,1006.48
2022-12-03T12:02:59.207Z,1006.46
2022-12-03T12:03:59.104Z,1006.43
2022-12-03T12:04:59.039Z,1006.41
2022-12-03T12:05:59.047Z,1006.38
2022-12-03T12:06:59.040Z,1006.33
2022-12-03T12:07:59.094Z,1006.32
2022-12-03T12:08:58.988Z,1006.31
2022-12-03T12:09:58.987Z,1006.28
2022-12-03T12:10:58.970Z,1006.28
2022-12-03T12:11:59.020Z,1006.26
2022-12-03T12:12:58.944Z,1006.25
2022-12-03T12:13:59.001Z,1006.24
2022-12-03T12:14:58.943Z,1006.23
2022-12-03T12:15:59.011Z,1006.23
2022-12-03T12:16:58.917Z,1006.22
2022-12-03T12:17:58.945Z,1006.21
2022-12-03T12:18:58.887Z,1006.18
2022-12-03T12:19:59.317Z,1006.18
2022-12-03T12:20:58.862Z,1006.16
2022-12-03T12:21:58.876Z,1006.16
2022-12-03T12:22:58.842Z,1006.15
2022-12-03T12:23:58.863Z,1006.14
2022-12-03T12:24:58.825Z,1006.16
2022-12-03T12:25:58.862Z,1006.16
2022-12-03T12:26:58.799Z,1006.13
2022-12-03T12:27:58.806Z,1006.12
2022-12-03T12:28:58.779Z,1006.13
2022-12-03T12:29:58.778Z,1006.12
2022-12-03T12:30:58.815Z,1006.10
2022-12-03T12:31:58.853Z,1006.11
2022-12-03T12:32:58.744Z,1006.09
2022-12-03T12:33:58.757Z,1006.09
2022-12-03T12:34:58.715Z,1006.09
2022-12-03T12:35:58.745Z,1006.08
2022-12-03T12:36:58.697Z,1006.08
2022-12-03T12:38:00.331Z,1006.07
2022-12-03T12:38:58.668Z,1006.06
2022-12-03T12:39:58.677Z,1006.06
2022-12-03T12:40:58.665Z,1006.07
2022-12-03T12:41:58.656Z,1006.07
2022-12-03T12:42:58.640Z,1006.08
2022-12-03T12:43:58.677Z,1006.08
2022-12-03T12:44:58.625Z,1006.06
2022-12-03T12:45:58.623Z,1006.07
2022-12-03T12:46:58.638Z,1006.07
2022-12-03T12:47:58.597Z,1006.09
2022-12-03T12:48:59.950Z,1006.08
2022-12-03T12:49:58.610Z,1006.07
2022-12-03T12:50:58.570Z,1006.08
2022-12-03T12:51:58.551Z,1006.09
2022-12-03T12:52:58.534Z,1006.07
2022-12-03T12:53:58.525Z,1006.08
2022-12-03T12:55:04.346Z,1006.09
2022-12-03T12:55:58.519Z,1006.06
2022-12-03T12:56:58.517Z,1006.12
2022-12-03T12:57:58.490Z,1006.10
2022-12-03T12:58:58.456Z,1006.10
2022-12-03T12:59:58.479Z,1006.08
2022-12-03T13:00:58.519Z,1006.08
2022-12-03T13:01:58.507Z,1006.07
2022-12-03T13:02:58.519Z,1006.06
2022-12-03T13:03:58.426Z,1006.06
2022-12-03T13:04:58.405Z,1006.07
2022-12-03T13:05:58.421Z,1006.05
2022-12-03T13:06:58.385Z,1006.05
2022-12-03T13:07:58.491Z,1006.06
2022-12-03T13:08:58.372Z,1006.07
2022-12-03T13:09:58.374Z,1006.07
2022-12-03T13:10:58.340Z,1006.07
2022-12-03T13:11:58.333Z,1006.09
2022-12-03T13:12:58.336Z,1006.12
2022-12-03T13:13:58.342Z,1006.07
2022-12-03T13:14:58.296Z,1006.05
2022-12-03T13:15:58.334Z,1006.06
2022-12-03T13:16:58.346Z,1006.06
2022-12-03T13:17:58.305Z,1006.05
2022-12-03T13:18:58.278Z,1006.05
2022-12-03T13:20:06.665Z,1006.03
2022-12-03T13:20:58.237Z,1006.02
2022-12-03T13:21:58.234Z,1006.01
2022-12-03T13:22:58.213Z,1006.01
2022-12-03T13:23:58.251Z,1006.02
2022-12-03T13:24:58.288Z,1006.04
2022-12-03T13:26:06.364Z,1006.06
2022-12-03T13:26:58.170Z,1006.06
2022-12-03T13:27:58.176Z,1006.07
2022-12-03T13:28:58.528Z,1006.06
2022-12-03T13:29:58.182Z,1006.08
2022-12-03T13:30:58.119Z,1006.06
2022-12-03T13:31:58.254Z,1006.08
2022-12-03T13:32:58.110Z,1006.06
2022-12-03T13:33:58.117Z,1006.07
2022-12-03T13:34:58.110Z,1006.07
2022-12-03T13:35:58.123Z,1006.07
2022-12-03T13:36:58.846Z,1006.06
2022-12-03T13:37:58.071Z,1006.06
2022-12-03T13:38:58.062Z,1006.04
2022-12-03T13:39:58.083Z,1006.03
2022-12-03T13:40:58.023Z,1006.02
2022-12-03T13:41:58.035Z,1005.99
2022-12-03T13:42:57.997Z,1005.98
2022-12-03T13:43:58.012Z,1005.97
2022-12-03T13:44:57.977Z,1005.97
2022-12-03T13:45:58.069Z,1005.97
2022-12-03T13:46:57.958Z,1005.93
2022-12-03T13:47:57.965Z,1005.96
2022-12-03T13:49:01.739Z,1005.95
2022-12-03T13:49:57.984Z,1005.93
2022-12-03T13:50:57.965Z,1005.88
2022-12-03T13:51:57.932Z,1005.88
2022-12-03T13:52:57.897Z,1005.87
2022-12-03T13:53:57.900Z,1005.86
2022-12-03T13:54:57.921Z,1005.85
2022-12-03T13:55:57.886Z,1005.83
2022-12-03T13:56:57.855Z,1005.82
2022-12-03T13:57:57.856Z,1005.82
2022-12-03T13:58:57.844Z,1005.80
2022-12-03T13:59:57.840Z,1005.81
2022-12-03T14:00:57.892Z,1005.80
2022-12-03T14:01:57.889Z,1005.78
2022-12-03T14:02:58.006Z,1005.79
2022-12-03T14:03:57.818Z,1005.81
2022-12-03T14:05:00.457Z,1005.79
2022-12-03T14:05:57.787Z,1005.81
2022-12-03T14:06:57.764Z,1005.82
2022-12-03T14:07:57.872Z,1005.81
2022-12-03T14:08:57.728Z,1005.82
2022-12-03T14:09:57.815Z,1005.80
2022-12-03T14:11:00.546Z,1005.80
2022-12-03T14:11:57.710Z,1005.78
2022-12-03T14:12:57.709Z,1005.78
2022-12-03T14:13:57.695Z,1005.76
2022-12-03T14:14:57.671Z,1005.76
2022-12-03T14:15:57.763Z,1005.77
2022-12-03T14:17:00.037Z,1005.77
2022-12-03T14:17:57.681Z,1005.78
2022-12-03T14:18:57.631Z,1005.77
2022-12-03T14:19:57.848Z,1005.75
2022-12-03T14:20:57.614Z,1005.74
2022-12-03T14:21:57.600Z,1005.72
2022-12-03T14:22:59.486Z,1005.75
2022-12-03T14:23:57.596Z,1005.76
2022-12-03T14:24:57.559Z,1005.75
2022-12-03T14:25:57.567Z,1005.75
2022-12-03T14:26:57.533Z,1005.76
2022-12-03T14:27:57.550Z,1005.75
2022-12-03T14:28:57.515Z,1005.77
2022-12-03T14:29:57.867Z,1005.76
2022-12-03T14:30:57.499Z,1005.76
2022-12-03T14:31:57.544Z,1005.74
2022-12-03T14:32:57.473Z,1005.74
2022-12-03T14:33:57.486Z,1005.75
2022-12-03T14:34:57.500Z,1005.74
2022-12-03T14:35:57.456Z,1005.74
2022-12-03T14:36:57.446Z,1005.75
2022-12-03T14:37:57.464Z,1005.74
2022-12-03T14:38:57.427Z,1005.73
2022-12-03T14:39:57.736Z,1005.75
2022-12-03T14:40:57.420Z,1005.77
2022-12-03T14:41:57.428Z,1005.74
2022-12-03T14:42:57.388Z,1005.72
2022-12-03T14:43:57.395Z,1005.74
2022-12-03T14:44:57.386Z,1005.72
2022-12-03T14:45:57.465Z,1005.69
2022-12-03T14:46:57.731Z,1005.73
2022-12-03T14:47:57.369Z,1005.69
2022-12-03T14:48:57.309Z,1005.68
2022-12-03T14:49:57.639Z,1005.68
2022-12-03T14:50:57.294Z,1005.68
2022-12-03T14:51:57.318Z,1005.68
2022-12-03T14:52:57.289Z,1005.67
2022-12-03T14:53:57.309Z,1005.67
2022-12-03T14:54:57.255Z,1005.66
2022-12-03T14:55:57.251Z,1005.67
2022-12-03T14:56:57.244Z,1005.66
2022-12-03T14:57:57.234Z,1005.67
2022-12-03T14:58:57.241Z,1005.64
2022-12-03T14:59:57.505Z,1005.62
2022-12-03T15:00:57.233Z,1005.62
2022-12-03T15:01:57.437Z,1005.61
2022-12-03T15:02:57.285Z,1005.60
2022-12-03T15:03:57.176Z,1005.59
2022-12-03T15:04:57.165Z,1005.60
2022-12-03T15:05:57.164Z,1005.59
2022-12-03T15:06:57.141Z,1005.58
2022-12-03T15:07:57.269Z,1005.61
2022-12-03T15:08:57.104Z,1005.64
2022-12-03T15:09:57.363Z,1005.64
2022-12-03T15:10:57.080Z,1005.68
2022-12-03T15:11:57.086Z,1005.67
2022-12-03T15:12:57.078Z,1005.68
2022-12-03T15:13:57.099Z,1005.71
2022-12-03T15:14:57.030Z,1005.72
2022-12-03T15:15:57.077Z,1005.74
2022-12-03T15:16:57.094Z,1005.75
2022-12-03T15:17:57.043Z,1005.76
2022-12-03T15:18:57.002Z,1005.78
2022-12-03T15:19:57.058Z,1005.76
2022-12-03T15:20:56.972Z,1005.80
2022-12-03T15:21:56.987Z,1005.81
2022-12-03T15:22:56.951Z,1005.83
2022-12-03T15:23:56.987Z,1005.83
2022-12-03T15:24:56.946Z,1005.85
2022-12-03T15:25:56.956Z,1005.85
2022-12-03T15:26:56.916Z,1005.85
2022-12-03T15:27:56.953Z,1005.85
2022-12-03T15:28:56.896Z,1005.84
2022-12-03T15:29:57.038Z,1005.86
2022-12-03T15:30:56.928Z,1005.81
2022-12-03T15:31:56.971Z,1005.81
2022-12-03T15:32:56.841Z,1005.80
2022-12-03T15:33:56.889Z,1005.79
2022-12-03T15:34:56.850Z,1005.81
2022-12-03T15:35:56.833Z,1005.79
2022-12-03T15:36:56.798Z,1005.79
2022-12-03T15:37:56.799Z,1005.81
2022-12-03T15:38:56.824Z,1005.81
2022-12-03T15:39:57.109Z,1005.82
2022-12-03T15:40:56.771Z,1005.81
2022-12-03T15:41:56.762Z,1005.77
2022-12-03T15:42:56.771Z,1005.76
2022-12-03T15:43:56.800Z,1005.76
2022-12-03T15:44:56.741Z,1005.75
2022-12-03T15:45:56.777Z,1005.74
2022-12-03T15:46:56.716Z,1005.75
2022-12-03T15:47:56.688Z,1005.75
2022-12-03T15:48:56.700Z,1005.75
2022-12-03T15:49:56.998Z,1005.73
2022-12-03T15:50:56.739Z,1005.75
2022-12-03T15:51:56.749Z,1005.73
2022-12-03T15:52:56.705Z,1005.73
2022-12-03T15:53:56.672Z,1005.74
2022-12-03T15:54:56.702Z,1005.75
2022-12-03T15:55:56.686Z,1005.77
2022-12-03T15:56:57.663Z,1005.75
2022-12-03T15:57:56.656Z,1005.75